createdAt,value
2019-05-29T00:02:23.024Z,84.30
2019-05-29T00:04:49.688Z,84.50
2019-05-29T00:07:16.284Z,85.40
2019-05-29T00:09:42.548Z,84.50
2019-05-29T00:12:13.800Z,84.60
2019-05-29T00:14:37.482Z,84.40
2019-05-29T00:17:04.305Z,84.20
2019-05-29T00:19:30.709Z,84.20
2019-05-29T00:21:56.969Z,84.30
2019-05-29T00:24:23.580Z,84.10
2019-05-29T00:26:49.837Z,84.60
2019-05-29T00:29:16.444Z,84.40
2019-05-29T00:31:42.680Z,84.40
2019-05-29T00:34:08.985Z,85.00
2019-05-29T00:36:35.668Z,85.20
2019-05-29T00:39:06.513Z,85.10
2019-05-29T00:41:33.351Z,85.20
2019-05-29T00:43:59.993Z,85.40
2019-05-29T00:46:26.625Z,86.50
2019-05-29T00:48:53.297Z,87.40
2019-05-29T00:51:19.490Z,88.40
2019-05-29T00:53:45.859Z,87.60
2019-05-29T00:56:12.611Z,85.90
2019-05-29T00:58:41.433Z,86.00
2019-05-29T01:01:07.298Z,86.10
2019-05-29T01:03:33.593Z,86.60
2019-05-29T01:06:00.167Z,87.30
2019-05-29T01:08:26.766Z,86.00
2019-05-29T01:10:53.046Z,86.30
2019-05-29T01:13:19.686Z,86.00
2019-05-29T01:15:46.320Z,86.00
2019-05-29T01:18:13.791Z,85.70
2019-05-29T01:20:40.516Z,86.30
2019-05-29T01:23:07.005Z,85.80
2019-05-29T01:25:33.268Z,86.00
2019-05-29T01:27:59.880Z,86.30
2019-05-29T01:30:26.562Z,86.40
2019-05-29T01:32:52.761Z,85.30
2019-05-29T01:35:20.067Z,86.00
2019-05-29T01:37:46.845Z,87.80
2019-05-29T01:40:20.025Z,89.60
2019-05-29T01:42:42.201Z,90.00
2019-05-29T01:45:09.908Z,89.20
2019-05-29T01:47:36.309Z,89.20
2019-05-29T01:50:04.302Z,90.00
2019-05-29T01:52:30.820Z,90.00
2019-05-29T01:54:57.407Z,90.00
2019-05-29T01:57:23.857Z,89.70
2019-05-29T01:59:50.688Z,88.10
2019-05-29T02:02:17.782Z,87.10
2019-05-29T02:04:44.811Z,87.20
2019-05-29T02:07:11.416Z,87.40
2019-05-29T02:09:38.193Z,87.30
2019-05-29T02:12:04.841Z,87.30
2019-05-29T02:14:31.338Z,87.40
2019-05-29T02:16:58.018Z,87.90
2019-05-29T02:19:24.616Z,87.20
2019-05-29T02:21:52.109Z,88.30
2019-05-29T02:24:19.046Z,89.80
2019-05-29T02:26:45.791Z,89.70
2019-05-29T02:29:12.501Z,90.20
2019-05-29T02:31:39.186Z,90.30
2019-05-29T02:34:07.432Z,89.70
2019-05-29T02:36:34.080Z,90.00
2019-05-29T02:39:21.138Z,90.30
2019-05-29T02:41:48.525Z,90.20
2019-05-29T02:44:15.194Z,88.80
2019-05-29T02:46:41.802Z,88.80
2019-05-29T02:49:08.494Z,88.50
2019-05-29T02:51:35.073Z,89.50
2019-05-29T02:54:01.331Z,89.80
2019-05-29T02:56:28.986Z,89.70
2019-05-29T02:58:55.814Z,88.90
2019-05-29T03:01:23.999Z,88.70
2019-05-29T03:03:51.226Z,88.50
2019-05-29T03:06:17.923Z,88.80
2019-05-29T03:08:44.246Z,89.40
2019-05-29T03:11:10.694Z,89.70
2019-05-29T03:13:37.575Z,90.20
2019-05-29T03:16:11.221Z,89.10
2019-05-29T03:18:32.992Z,88.70
2019-05-29T03:21:00.283Z,89.10
2019-05-29T03:23:27.162Z,89.00
2019-05-29T03:25:54.982Z,88.90
2019-05-29T03:28:21.666Z,88.10
2019-05-29T03:30:48.363Z,89.60
2019-05-29T03:33:14.953Z,90.40
2019-05-29T03:35:47.606Z,89.80
2019-05-29T03:38:09.893Z,90.20
2019-05-29T03:40:36.213Z,88.90
2019-05-29T03:43:02.915Z,89.20
2019-05-29T03:45:31.088Z,88.90
2019-05-29T03:47:57.601Z,89.70
2019-05-29T03:50:26.268Z,89.20
2019-05-29T03:52:52.512Z,89.40
2019-05-29T03:55:18.780Z,89.00
2019-05-29T03:57:45.383Z,88.80
2019-05-29T04:00:12.640Z,87.80
2019-05-29T04:02:39.070Z,87.90
2019-05-29T04:05:07.154Z,88.70
2019-05-29T04:07:35.499Z,88.80
2019-05-29T04:10:03.759Z,88.90
2019-05-29T04:12:31.422Z,88.40
2019-05-29T04:14:58.241Z,88.80
2019-05-29T04:17:27.308Z,89.20
2019-05-29T04:19:54.538Z,90.00
2019-05-29T04:22:24.654Z,90.20
2019-05-29T04:24:52.978Z,90.50
2019-05-29T04:27:23.242Z,90.10
2019-05-29T04:29:49.982Z,89.90
2019-05-29T04:32:16.239Z,90.10
2019-05-29T04:34:42.582Z,90.40
2019-05-29T04:37:09.255Z,90.00
2019-05-29T04:39:36.968Z,89.60
2019-05-29T04:42:03.853Z,89.10
2019-05-29T04:44:30.860Z,88.70
2019-05-29T04:47:10.143Z,88.10
2019-05-29T04:49:25.576Z,87.80
2019-05-29T04:51:51.962Z,87.60
2019-05-29T04:54:18.298Z,88.20
2019-05-29T04:56:44.805Z,90.00
2019-05-29T04:59:11.426Z,89.60
2019-05-29T05:01:37.666Z,90.10
2019-05-29T05:04:04.289Z,90.20
2019-05-29T05:06:31.223Z,89.70
2019-05-29T05:08:57.995Z,89.40
2019-05-29T05:11:24.706Z,89.70
2019-05-29T05:13:51.304Z,89.10
2019-05-29T05:16:17.517Z,88.20
2019-05-29T05:18:44.122Z,88.90
2019-05-29T05:21:10.784Z,88.90
2019-05-29T05:23:38.252Z,88.70
2019-05-29T05:26:04.905Z,88.10
2019-05-29T05:28:32.170Z,87.70
2019-05-29T05:30:59.833Z,86.00
2019-05-29T05:33:26.405Z,84.80
2019-05-29T05:35:52.724Z,81.90
2019-05-29T05:38:18.982Z,79.50
2019-05-29T05:40:45.305Z,77.40
2019-05-29T05:43:23.679Z,76.90
2019-05-29T05:45:41.186Z,78.10
2019-05-29T05:48:07.874Z,78.70
2019-05-29T05:50:35.060Z,79.40
2019-05-29T05:53:01.656Z,80.50
2019-05-29T05:55:28.248Z,80.90
2019-05-29T05:57:54.838Z,80.90
2019-05-29T06:00:29.591Z,79.90
2019-05-29T06:02:56.127Z,79.70
2019-05-29T06:05:22.548Z,79.20
2019-05-29T06:07:49.381Z,80.20
2019-05-29T06:10:15.801Z,77.70
2019-05-29T06:12:42.873Z,77.90
2019-05-29T06:15:09.762Z,73.90
2019-05-29T06:17:36.603Z,69.10
2019-05-29T06:20:07.993Z,63.90
2019-05-29T06:22:34.863Z,61.40
2019-05-29T06:25:02.514Z,58.70
2019-05-29T06:27:28.773Z,55.00
2019-05-29T06:29:54.989Z,52.00
2019-05-29T06:32:21.504Z,48.90
2019-05-29T06:34:47.848Z,46.40
2019-05-29T06:37:14.086Z,46.10
2019-05-29T06:39:41.698Z,44.40
2019-05-29T06:42:08.388Z,47.10
2019-05-29T06:44:36.393Z,45.10
2019-05-29T06:47:02.815Z,44.80
2019-05-29T06:49:29.036Z,45.10
2019-05-29T06:51:55.276Z,44.40
2019-05-29T06:54:21.887Z,42.70
2019-05-29T06:56:48.111Z,41.10
2019-05-29T06:59:14.378Z,40.50
2019-05-29T07:01:41.701Z,38.80
2019-05-29T07:04:12.285Z,38.60
2019-05-29T07:06:36.548Z,38.20
2019-05-29T07:09:05.213Z,39.20
2019-05-29T07:11:31.462Z,38.90
2019-05-29T07:13:57.737Z,37.20
2019-05-29T07:16:40.956Z,36.00
2019-05-29T07:19:24.177Z,36.40
2019-05-29T07:21:20.208Z,36.00
2019-05-29T07:23:48.443Z,36.10
2019-05-29T07:26:14.744Z,37.40
2019-05-29T07:29:05.680Z,36.90
2019-05-29T07:31:10.344Z,36.70
2019-05-29T07:33:37.017Z,36.80
2019-05-29T07:36:03.504Z,38.90
2019-05-29T07:38:29.725Z,37.90
2019-05-29T07:40:55.949Z,37.00
2019-05-29T07:43:22.230Z,36.40
2019-05-29T07:45:49.045Z,35.30
2019-05-29T07:48:15.310Z,34.70
2019-05-29T07:50:42.156Z,32.90
2019-05-29T07:53:08.709Z,32.80
2019-05-29T07:55:35.218Z,35.30
2019-05-29T07:58:01.462Z,34.70
2019-05-29T08:00:35.203Z,35.00
2019-05-29T08:02:55.822Z,35.90
2019-05-29T08:05:22.095Z,33.20
2019-05-29T08:07:49.581Z,32.20
2019-05-29T08:10:16.657Z,33.80
2019-05-29T08:12:50.239Z,34.90
2019-05-29T08:15:11.408Z,34.80
2019-05-29T08:17:37.826Z,34.90
2019-05-29T08:20:08.113Z,33.80
2019-05-29T08:22:35.095Z,32.30
2019-05-29T08:25:01.566Z,31.50
2019-05-29T08:27:27.828Z,30.30
2019-05-29T08:29:54.073Z,28.40
2019-05-29T08:32:20.342Z,28.00
2019-05-29T08:34:47.048Z,27.80
2019-05-29T08:37:13.382Z,26.50
2019-05-29T08:39:41.189Z,27.20
2019-05-29T08:42:22.598Z,28.80
2019-05-29T08:44:35.993Z,28.80
2019-05-29T08:47:10.094Z,28.50
2019-05-29T08:49:30.240Z,27.30
2019-05-29T08:52:10.545Z,28.80
2019-05-29T08:54:24.579Z,32.60
2019-05-29T08:56:50.809Z,33.40
2019-05-29T08:59:17.127Z,33.50
2019-05-29T09:01:44.994Z,33.60
2019-05-29T09:04:11.343Z,35.50
2019-05-29T09:06:37.659Z,33.70
2019-05-29T09:09:06.156Z,30.30
2019-05-29T09:11:32.405Z,30.40
2019-05-29T09:13:58.636Z,33.60
2019-05-29T09:16:24.881Z,37.60
2019-05-29T09:18:51.091Z,34.70
2019-05-29T09:21:18.859Z,31.50
2019-05-29T09:23:45.406Z,28.60
2019-05-29T09:26:17.661Z,26.20
2019-05-29T09:28:40.645Z,25.10
2019-05-29T09:31:06.971Z,26.30
2019-05-29T09:33:33.256Z,26.80
2019-05-29T09:35:59.593Z,27.10
2019-05-29T09:38:25.857Z,25.50
2019-05-29T09:40:52.886Z,24.20
2019-05-29T09:43:19.924Z,25.30
2019-05-29T09:45:47.108Z,23.80
2019-05-29T09:48:20.138Z,25.10
2019-05-29T09:50:50.095Z,24.00
2019-05-29T09:53:10.625Z,22.80
2019-05-29T09:55:36.862Z,23.90
2019-05-29T09:58:03.316Z,24.60
2019-05-29T10:00:29.536Z,25.10
2019-05-29T10:02:57.161Z,24.40
2019-05-29T10:05:23.869Z,24.30
2019-05-29T10:07:50.105Z,23.80
2019-05-29T10:10:23.569Z,26.10
2019-05-29T10:12:49.807Z,27.70
2019-05-29T10:15:16.577Z,25.50
2019-05-29T10:17:43.101Z,25.00
2019-05-29T10:20:10.568Z,25.20
2019-05-29T10:22:36.799Z,26.80
2019-05-29T10:25:07.450Z,28.70
2019-05-29T10:27:33.798Z,27.60
2019-05-29T10:30:00.005Z,26.40
2019-05-29T10:32:26.378Z,25.80
2019-05-29T10:34:52.729Z,25.30
2019-05-29T10:37:19.358Z,24.90
2019-05-29T10:39:46.712Z,24.80
2019-05-29T10:42:13.236Z,26.40
2019-05-29T10:44:39.476Z,25.60
2019-05-29T10:47:05.726Z,25.30
2019-05-29T10:49:32.372Z,25.80
2019-05-29T10:52:13.906Z,27.70
2019-05-29T10:54:26.624Z,29.10
2019-05-29T10:56:53.115Z,30.30
2019-05-29T10:59:19.696Z,29.30
2019-05-29T11:01:46.942Z,29.90
2019-05-29T11:04:13.396Z,26.90
2019-05-29T11:06:41.015Z,25.10
2019-05-29T11:09:07.655Z,24.70
2019-05-29T11:11:33.928Z,25.20
2019-05-29T11:14:00.137Z,24.10
2019-05-29T11:16:26.393Z,25.00
2019-05-29T11:18:53.395Z,23.30
2019-05-29T11:21:19.860Z,24.30
2019-05-29T11:23:46.100Z,23.50
2019-05-29T11:26:12.385Z,21.60
2019-05-29T11:28:38.676Z,24.00
2019-05-29T11:31:06.274Z,24.70
2019-05-29T11:33:33.013Z,25.00
2019-05-29T11:36:09.996Z,26.80
2019-05-29T11:38:27.364Z,25.70
2019-05-29T11:41:20.248Z,27.20
2019-05-29T11:43:21.872Z,29.70
2019-05-29T11:45:48.129Z,32.10
2019-05-29T11:48:14.460Z,31.20
2019-05-29T11:50:40.696Z,31.40
2019-05-29T11:53:08.229Z,31.10
2019-05-29T11:55:35.685Z,29.50
2019-05-29T11:58:02.093Z,28.30
2019-05-29T12:00:28.432Z,28.50
2019-05-29T12:02:55.849Z,28.40
2019-05-29T12:05:22.465Z,28.60
2019-05-29T12:07:48.703Z,28.70
2019-05-29T12:10:16.156Z,27.80
2019-05-29T12:12:42.365Z,27.60
2019-05-29T12:15:14.309Z,27.30
2019-05-29T12:17:39.478Z,26.70
2019-05-29T12:20:26.497Z,25.50
2019-05-29T12:22:35.159Z,25.70
2019-05-29T12:25:02.883Z,25.70
2019-05-29T12:27:29.314Z,25.70
2019-05-29T12:29:56.582Z,26.30
2019-05-29T12:32:22.998Z,29.20
2019-05-29T12:34:53.529Z,30.90
2019-05-29T12:37:17.281Z,31.60
2019-05-29T12:39:43.502Z,31.90
2019-05-29T12:42:09.769Z,34.30
2019-05-29T12:44:35.980Z,35.40
2019-05-29T12:47:03.739Z,32.00
2019-05-29T12:49:30.336Z,29.50
2019-05-29T12:51:57.643Z,27.90
2019-05-29T12:54:24.006Z,25.70
2019-05-29T12:56:50.220Z,28.70
2019-05-29T12:59:16.375Z,30.50
2019-05-29T13:01:42.622Z,32.60
2019-05-29T13:04:08.838Z,33.20
2019-05-29T13:06:35.093Z,33.90
2019-05-29T13:09:02.537Z,34.40
2019-05-29T13:11:29.248Z,35.00
2019-05-29T13:13:56.277Z,36.50
2019-05-29T13:16:22.527Z,37.60
2019-05-29T13:18:48.745Z,38.00
2019-05-29T13:21:14.980Z,37.50
2019-05-29T13:23:44.993Z,36.60
2019-05-29T13:26:10.344Z,36.50
2019-05-29T13:28:36.561Z,36.30
2019-05-29T13:31:04.581Z,36.10
2019-05-29T13:33:31.071Z,34.60
2019-05-29T13:35:58.064Z,34.80
2019-05-29T13:38:24.333Z,36.20
2019-05-29T13:40:50.549Z,35.50
2019-05-29T13:43:16.789Z,35.40
2019-05-29T13:45:44.188Z,36.00
2019-05-29T13:48:10.360Z,36.10
2019-05-29T13:50:36.672Z,36.60
2019-05-29T13:53:03.544Z,35.80
2019-05-29T13:55:30.085Z,36.80
2019-05-29T13:57:57.499Z,36.80
2019-05-29T14:00:34.465Z,35.90
2019-05-29T14:02:52.672Z,36.40
2019-05-29T14:05:19.300Z,36.40
2019-05-29T14:07:45.612Z,36.10
2019-05-29T14:10:12.427Z,34.20
2019-05-29T14:12:38.637Z,36.30
2019-05-29T14:15:08.816Z,36.90
2019-05-29T14:17:37.832Z,37.20
2019-05-29T14:20:06.675Z,37.10
2019-05-29T14:22:33.009Z,36.40
2019-05-29T14:24:59.246Z,35.70
2019-05-29T14:27:25.454Z,35.90
2019-05-29T14:29:51.676Z,34.30
2019-05-29T14:32:19.048Z,34.50
2019-05-29T14:34:45.639Z,34.30
2019-05-29T14:37:11.900Z,34.90
2019-05-29T14:39:39.310Z,35.80
2019-05-29T14:42:08.264Z,36.10
2019-05-29T14:44:34.632Z,35.40
2019-05-29T14:47:01.815Z,36.10
2019-05-29T14:49:28.321Z,35.50
2019-05-29T14:51:54.764Z,35.40
2019-05-29T14:54:20.998Z,35.30
2019-05-29T14:56:47.518Z,34.80
2019-05-29T14:59:13.843Z,33.30
2019-05-29T15:01:40.046Z,32.80
2019-05-29T15:04:07.506Z,32.50
2019-05-29T15:06:33.952Z,32.90
2019-05-29T15:09:00.187Z,32.70
2019-05-29T15:11:26.305Z,31.60
2019-05-29T15:13:53.536Z,32.40
2019-05-29T15:16:19.753Z,32.80
2019-05-29T15:18:46.007Z,33.50
2019-05-29T15:21:13.183Z,33.10
2019-05-29T15:23:39.626Z,33.30
2019-05-29T15:26:06.005Z,31.40
2019-05-29T15:28:32.217Z,31.60
2019-05-29T15:30:58.429Z,32.60
2019-05-29T15:33:24.672Z,33.30
2019-05-29T15:35:50.880Z,33.10
2019-05-29T15:38:17.238Z,33.20
2019-05-29T15:40:43.623Z,32.90
2019-05-29T15:43:10.853Z,33.90
2019-05-29T15:45:37.401Z,33.70
2019-05-29T15:48:03.656Z,32.60
2019-05-29T15:50:29.918Z,32.50
2019-05-29T15:52:56.458Z,31.90
2019-05-29T15:55:31.892Z,32.90
2019-05-29T15:57:50.707Z,34.50
2019-05-29T16:00:19.392Z,35.30
2019-05-29T16:02:48.559Z,36.00
2019-05-29T16:05:15.374Z,36.20
2019-05-29T16:07:42.118Z,36.00
2019-05-29T16:10:13.022Z,36.70
2019-05-29T16:12:38.579Z,37.40
2019-05-29T16:15:06.589Z,37.00
2019-05-29T16:17:32.874Z,36.70
2019-05-29T16:19:59.100Z,35.90
2019-05-29T16:22:25.354Z,35.70
2019-05-29T16:24:51.468Z,36.50
2019-05-29T16:27:18.195Z,36.30
2019-05-29T16:29:44.628Z,35.00
2019-05-29T16:32:11.619Z,35.30
2019-05-29T16:34:37.903Z,35.80
2019-05-29T16:37:04.525Z,36.40
2019-05-29T16:39:30.723Z,37.10
2019-05-29T16:41:56.867Z,37.30
2019-05-29T16:44:27.283Z,37.30
2019-05-29T16:46:51.039Z,37.90
2019-05-29T16:49:18.451Z,38.10
2019-05-29T16:51:45.251Z,37.90
2019-05-29T16:54:12.822Z,38.80
2019-05-29T16:56:39.303Z,38.90
2019-05-29T16:59:05.915Z,39.50
2019-05-29T17:01:32.252Z,39.30
2019-05-29T17:03:58.465Z,39.50
2019-05-29T17:06:25.964Z,39.40
2019-05-29T17:08:52.203Z,39.90
2019-05-29T17:11:18.601Z,39.40
2019-05-29T17:13:44.939Z,40.30
2019-05-29T17:16:11.075Z,40.40
2019-05-29T17:18:37.219Z,40.00
2019-05-29T17:21:03.559Z,40.10
2019-05-29T17:23:29.782Z,39.80
2019-05-29T17:26:09.742Z,39.50
2019-05-29T17:28:26.721Z,39.40
2019-05-29T17:30:52.125Z,39.00
2019-05-29T17:33:19.063Z,38.80
2019-05-29T17:35:46.748Z,39.10
2019-05-29T17:38:12.981Z,40.00
2019-05-29T17:40:39.287Z,40.30
2019-05-29T17:43:06.032Z,41.00
2019-05-29T17:45:32.257Z,40.40
2019-05-29T17:47:58.386Z,41.30
2019-05-29T17:50:26.629Z,41.30
2019-05-29T17:52:52.751Z,41.40
2019-05-29T17:55:21.684Z,42.60
2019-05-29T17:57:47.100Z,43.20
2019-05-29T18:00:17.978Z,44.10
2019-05-29T18:02:51.817Z,44.70
2019-05-29T18:05:14.446Z,44.80
2019-05-29T18:07:40.615Z,45.70
2019-05-29T18:10:07.645Z,46.50
2019-05-29T18:12:33.855Z,46.50
2019-05-29T18:15:05.278Z,46.60
2019-05-29T18:17:31.500Z,47.50
2019-05-29T18:19:57.755Z,48.30
2019-05-29T18:22:23.901Z,49.30
2019-05-29T18:24:50.031Z,49.80
2019-05-29T18:27:16.152Z,49.60
2019-05-29T18:29:42.355Z,49.60
2019-05-29T18:32:08.507Z,49.90
2019-05-29T18:34:34.640Z,50.30
2019-05-29T18:37:00.871Z,50.30
2019-05-29T18:39:28.339Z,51.40
2019-05-29T18:41:55.030Z,52.10
2019-05-29T18:44:21.140Z,52.70
2019-05-29T18:46:47.407Z,53.10
2019-05-29T18:49:14.821Z,53.80
2019-05-29T18:51:41.574Z,54.30
2019-05-29T18:54:07.788Z,54.60
2019-05-29T18:56:33.901Z,54.40
2019-05-29T18:59:00.347Z,54.90
2019-05-29T19:01:27.576Z,55.10
2019-05-29T19:03:53.885Z,55.00
2019-05-29T19:06:21.426Z,54.70
2019-05-29T19:08:47.760Z,54.70
2019-05-29T19:11:13.989Z,54.50
2019-05-29T19:13:40.127Z,54.00
2019-05-29T19:16:07.360Z,54.20
2019-05-29T19:18:33.620Z,54.00
2019-05-29T19:20:59.863Z,54.20
2019-05-29T19:23:26.539Z,54.60
2019-05-29T19:25:52.831Z,55.40
2019-05-29T19:28:19.048Z,55.60
2019-05-29T19:30:45.281Z,56.10
2019-05-29T19:33:11.862Z,55.70
2019-05-29T19:35:38.202Z,56.20
2019-05-29T19:38:04.395Z,56.00
2019-05-29T19:40:32.172Z,55.80
2019-05-29T19:42:59.948Z,56.20
2019-05-29T19:45:26.622Z,56.10
2019-05-29T19:47:53.032Z,56.10
2019-05-29T19:50:19.619Z,56.30
2019-05-29T19:52:45.905Z,56.60
2019-05-29T19:55:12.334Z,56.70
2019-05-29T19:57:54.826Z,56.90
2019-05-29T20:00:08.918Z,56.90
2019-05-29T20:02:35.108Z,56.80
2019-05-29T20:05:01.455Z,56.90
2019-05-29T20:07:28.765Z,57.00
2019-05-29T20:09:55.639Z,57.00
2019-05-29T20:12:21.806Z,57.30
2019-05-29T20:14:48.007Z,57.70
2019-05-29T20:17:14.170Z,58.10
2019-05-29T20:19:41.033Z,58.10
2019-05-29T20:22:07.533Z,57.80
2019-05-29T20:24:34.902Z,58.20
2019-05-29T20:27:01.201Z,58.50
2019-05-29T20:29:27.447Z,58.40
2019-05-29T20:31:54.943Z,58.10
2019-05-29T20:34:21.200Z,58.40
2019-05-29T20:36:47.438Z,59.80
2019-05-29T20:39:13.596Z,60.80
2019-05-29T20:41:42.101Z,61.20
2019-05-29T20:44:07.802Z,61.70
2019-05-29T20:46:34.928Z,62.00
2019-05-29T20:49:01.352Z,62.20
2019-05-29T20:51:27.607Z,62.10
2019-05-29T20:53:53.714Z,61.90
2019-05-29T20:56:19.875Z,62.10
2019-05-29T20:58:45.979Z,62.10
2019-05-29T21:01:12.193Z,62.10
2019-05-29T21:03:38.703Z,62.10
2019-05-29T21:06:05.226Z,62.50
2019-05-29T21:08:32.688Z,62.50
2019-05-29T21:10:59.079Z,61.70
2019-05-29T21:13:25.215Z,61.90
2019-05-29T21:15:51.322Z,61.70
2019-05-29T21:18:17.455Z,61.90
2019-05-29T21:20:44.577Z,61.20
2019-05-29T21:23:11.033Z,60.90
2019-05-29T21:25:37.269Z,60.60
2019-05-29T21:28:03.571Z,60.00
2019-05-29T21:30:29.799Z,59.40
2019-05-29T21:32:55.933Z,59.90
2019-05-29T21:35:22.181Z,60.20
2019-05-29T21:37:48.287Z,60.50
2019-05-29T21:40:14.592Z,61.10
2019-05-29T21:42:40.719Z,61.20
2019-05-29T21:45:07.318Z,61.40
2019-05-29T21:47:33.620Z,61.50
2019-05-29T21:49:59.815Z,61.90
2019-05-29T21:52:25.920Z,61.70
2019-05-29T21:54:52.045Z,61.80
2019-05-29T21:57:18.178Z,61.70
2019-05-29T21:59:44.463Z,61.70
2019-05-29T22:02:10.796Z,61.40
2019-05-29T22:04:38.274Z,61.50
2019-05-29T22:07:05.045Z,61.70
2019-05-29T22:09:31.253Z,61.70
2019-05-29T22:11:58.531Z,61.50
2019-05-29T22:14:24.833Z,61.70
2019-05-29T22:16:52.795Z,61.90
2019-05-29T22:19:19.255Z,62.20
2019-05-29T22:21:45.474Z,62.00
2019-05-29T22:24:11.729Z,62.00
2019-05-29T22:26:37.938Z,62.30
2019-05-29T22:29:17.419Z,62.60
2019-05-29T22:31:32.180Z,62.90
2019-05-29T22:33:59.495Z,63.10
2019-05-29T22:36:26.172Z,63.50
2019-05-29T22:38:53.421Z,63.20
2019-05-29T22:41:19.825Z,63.10
2019-05-29T22:43:46.119Z,63.10
2019-05-29T22:46:12.258Z,63.20
2019-05-29T22:48:38.467Z,63.20
2019-05-29T22:51:04.708Z,63.70
2019-05-29T22:53:30.920Z,64.40
2019-05-29T22:55:57.871Z,65.20
2019-05-29T22:58:24.639Z,65.60
2019-05-29T23:00:51.768Z,66.70
2019-05-29T23:03:18.287Z,66.00
2019-05-29T23:05:44.516Z,66.20
2019-05-29T23:08:10.727Z,66.40
2019-05-29T23:10:36.866Z,66.90
2019-05-29T23:13:05.557Z,67.70
2019-05-29T23:15:31.315Z,67.70
2019-05-29T23:17:58.512Z,67.50
2019-05-29T23:20:25.654Z,66.80
2019-05-29T23:22:52.577Z,67.20
2019-05-29T23:25:18.898Z,67.40
2019-05-29T23:27:45.038Z,66.50
2019-05-29T23:30:11.846Z,66.60
2019-05-29T23:32:38.053Z,66.90
2019-05-29T23:35:05.710Z,66.40
2019-05-29T23:37:31.914Z,66.40
2019-05-29T23:39:59.243Z,66.20
2019-05-29T23:42:25.799Z,66.30
2019-05-29T23:44:52.804Z,66.80
2019-05-29T23:47:20.032Z,67.00
2019-05-29T23:49:46.134Z,67.20
2019-05-29T23:52:12.368Z,67.50
2019-05-29T23:54:38.462Z,67.00
2019-05-29T23:57:04.618Z,66.80
2019-05-29T23:59:31.012Z,66.30
